Time;durP1;ratioP1;P1;durP2;ratioP2;P2;SDS_P1;SDS_P2;PMS_P1;PMS_P2;Temp;Humidity;BMP_temperature;BMP_pressure;BME280_temperature;BME280_humidity;BME280_pressure;Samples;Min_cycle;Max_cycle;Signal;HPM_P1;HPM_P2
2023/01/16 00:00:04;;;;;;;;;;;;;;;11.24;55.83;98922.69;4477690;32;34120;-68
2023/01/16 00:02:32;;;;;;;;;;;;;;;11.45;55.03;98918.03;4471249;32;33684;-64
2023/01/16 00:05:00;;;;;;;;;;;;;;;11.80;54.00;98913.94;4473175;32;35323;-65
2023/01/16 00:07:27;;;;;;;;;;;;;;;11.89;54.06;98919.31;4479437;32;32958;-64
2023/01/16 00:09:54;;;;;;;;;;;;;;;11.83;54.28;98913.66;4479745;32;34018;-67
2023/01/16 00:12:22;;;;;;;;;;;;;;;11.88;54.11;98917.63;4475288;32;33463;-68
2023/01/16 00:14:49;;;;;;;;;;;;;;;11.99;53.81;98913.09;4472724;32;34033;-65
2023/01/16 00:17:16;;;;;;;;;;;;;;;12.05;53.71;98909.84;4473208;31;35342;-68
2023/01/16 00:19:44;;;;;;;;;;;;;;;12.00;54.01;98901.38;4473971;31;34985;-66
2023/01/16 00:22:11;;;;;;;;;;;;;;;11.93;54.10;98916.34;4470515;31;31773;-65
2023/01/16 00:24:38;;;;;;;;;;;;;;;12.01;53.73;98903.94;4483569;32;34069;-67
2023/01/16 00:27:06;;;;;;;;;;;;;;;11.82;54.38;98898.56;4482408;31;34557;-64
2023/01/16 00:29:33;;;;;;;;;;;;;;;11.98;53.94;98896.16;4481526;32;34136;-63
2023/01/16 00:32:00;;;;;;;;;;;;;;;12.01;53.75;98895.87;4472845;32;34367;-64
2023/01/16 00:34:28;;;;;;;;;;;;;;;11.98;54.15;98892.66;4473575;32;35003;-64
2023/01/16 00:36:55;;;;;;;;;;;;;;;11.98;54.48;98889.97;4474888;32;34350;-63
2023/01/16 00:39:22;;;;;;;;;;;;;;;11.90;54.82;98890.66;4483886;32;32713;-64
2023/01/16 00:41:50;;;;;;;;;;;;;;;12.10;54.22;98880.72;4475987;32;33597;-64
2023/01/16 00:44:19;;;;;;;;;;;;;;;12.17;53.90;98873.81;4470287;32;34521;-66
2023/01/16 00:46:46;;;;;;;;;;;;;;;12.06;54.23;98885.53;4475416;32;34856;-67
2023/01/16 00:49:13;;;;;;;;;;;;;;;12.01;54.01;98878.94;4475384;32;33857;-73
2023/01/16 00:51:41;;;;;;;;;;;;;;;12.14;53.95;98882.16;4471562;32;33232;-67
2023/01/16 00:54:08;;;;;;;;;;;;;;;12.10;54.12;98875.38;4479039;32;34059;-67
2023/01/16 00:56:35;;;;;;;;;;;;;;;12.15;53.75;98880.31;4472800;31;34820;-67
2023/01/16 00:59:03;;;;;;;;;;;;;;;12.04;53.83;98881.34;4475127;32;34337;-68
2023/01/16 01:01:30;;;;;;;;;;;;;;;11.96;54.25;98883.88;4482890;32;33313;-67
2023/01/16 01:03:58;;;;;;;;;;;;;;;11.97;54.47;98886.41;4474254;32;35217;-67
2023/01/16 01:06:25;;;;;;;;;;;;;;;11.96;54.43;98874.00;4473048;32;33996;-68
2023/01/16 01:08:53;;;;;;;;;;;;;;;12.22;53.63;98874.22;4478564;32;34772;-68
2023/01/16 01:11:20;;;;;;;;;;;;;;;12.26;53.16;98874.75;4476113;31;33627;-67
2023/01/16 01:13:47;;;;;;;;;;;;;;;12.19;53.41;98868.28;4479238;32;33632;-67
2023/01/16 01:16:15;;;;;;;;;;;;;;;12.28;53.16;98867.41;4469790;31;34218;-68
2023/01/16 01:18:42;;;;;;;;;;;;;;;12.25;52.97;98865.03;4474261;32;33781;-67
2023/01/16 01:21:09;;;;;;;;;;;;;;;12.25;52.97;98862.34;4444336;31;798666;-67
2023/01/16 01:23:37;;;;;;;;;;;;;;;12.23;53.15;98851.78;4474836;32;33723;-66
2023/01/16 01:26:05;;;;;;;;;;;;;;;12.20;53.19;98843.16;4476257;31;33981;-67
2023/01/16 01:28:32;;;;;;;;;;;;;;;12.15;53.09;98830.19;4478844;31;34550;-68
2023/01/16 01:31:03;;;;;;;;;;;;;;;12.10;53.43;98845.88;4472089;32;33561;-66
2023/01/16 01:33:32;;;;;;;;;;;;;;;12.12;53.27;98857.31;4469439;32;32701;-68
2023/01/16 01:35:59;;;;;;;;;;;;;;;12.20;53.03;98851.19;4470118;32;33150;-69
2023/01/16 01:38:26;;;;;;;;;;;;;;;12.03;53.60;98844.75;4474139;32;34358;-66
2023/01/16 01:40:54;;;;;;;;;;;;;;;11.81;54.11;98852.16;4475353;32;33307;-69
2023/01/16 01:43:21;;;;;;;;;;;;;;;12.03;53.55;98864.38;4478197;32;34558;-67
2023/01/16 01:45:52;;;;;;;;;;;;;;;12.14;53.19;98866.06;4471209;32;34460;-66
2023/01/16 01:48:21;;;;;;;;;;;;;;;12.12;53.42;98866.19;4471978;32;34162;-66
2023/01/16 01:50:50;;;;;;;;;;;;;;;12.05;53.60;98866.94;4466587;32;33260;-67
2023/01/16 01:53:27;;;;;;;;;;;;;;;11.94;54.00;98867.09;4467499;32;34389;-66
2023/01/16 01:55:54;;;;;;;;;;;;;;;11.96;53.82;98868.62;4469512;31;33065;-68
2023/01/16 01:58:22;;;;;;;;;;;;;;;11.63;54.99;98867.25;4467817;32;34524;-66
2023/01/16 02:00:52;;;;;;;;;;;;;;;11.77;54.65;98858.75;4459388;32;33824;-65
2023/01/16 02:03:25;;;;;;;;;;;;;;;11.95;54.26;98855.38;4453061;32;34223;-65
2023/01/16 02:05:53;;;;;;;;;;;;;;;11.96;54.28;98852.56;4458273;31;35252;-65
2023/01/16 02:08:21;;;;;;;;;;;;;;;11.94;54.26;98851.00;4458721;32;35247;-68
2023/01/16 02:10:54;;;;;;;;;;;;;;;11.94;54.34;98848.31;4471634;32;33399;-66
2023/01/16 02:13:22;;;;;;;;;;;;;;;11.58;55.15;98854.28;4470416;32;34106;-68
2023/01/16 02:21:40;;;;;;;;;;;;;;;11.77;54.93;98829.28;4465467;31;33249;-65
2023/01/16 02:24:10;;;;;;;;;;;;;;;11.87;54.48;98826.59;4475950;32;34334;-65
2023/01/16 02:26:42;;;;;;;;;;;;;;;11.63;55.40;98806.47;4469806;31;35263;-67
2023/01/16 02:29:15;;;;;;;;;;;;;;;11.82;54.95;98813.63;4479010;32;34025;-67
2023/01/16 02:31:45;;;;;;;;;;;;;;;11.86;54.80;98798.09;4474117;32;34095;-65
2023/01/16 02:34:20;;;;;;;;;;;;;;;11.86;54.57;98793.59;4469180;32;35541;-65
2023/01/16 02:36:47;;;;;;;;;;;;;;;11.71;55.32;98788.78;4472940;32;34346;-65
2023/01/16 02:39:43;;;;;;;;;;;;;;;11.68;55.46;98784.56;4465053;32;34081;-65
2023/01/16 02:42:13;;;;;;;;;;;;;;;11.94;54.52;98779.47;4454137;32;32309;-65
2023/01/16 02:44:44;;;;;;;;;;;;;;;11.94;54.52;98770.56;4458647;32;34373;-67
2023/01/16 02:47:11;;;;;;;;;;;;;;;12.00;54.30;98770.81;4465828;32;33660;-65
2023/01/16 02:49:40;;;;;;;;;;;;;;;12.04;54.01;98774.06;4477971;31;34342;-66
2023/01/16 02:52:14;;;;;;;;;;;;;;;12.00;54.18;98770.81;4473696;32;33572;-67
2023/01/16 02:54:42;;;;;;;;;;;;;;;12.04;54.03;98782.94;4465258;32;34070;-67
2023/01/16 02:57:12;;;;;;;;;;;;;;;12.14;53.47;98780.22;4451078;32;33848;-65
2023/01/16 02:59:39;;;;;;;;;;;;;;;12.21;53.53;98772.44;4453000;32;34172;-65
2023/01/16 03:02:08;;;;;;;;;;;;;;;12.11;53.61;98767.09;4475987;32;33116;-66
2023/01/16 03:04:35;;;;;;;;;;;;;;;12.15;53.47;98755.06;4465705;32;33323;-66
2023/01/16 03:07:15;;;;;;;;;;;;;;;12.17;53.35;98747.75;4465980;32;34444;-67
2023/01/16 03:10:03;;;;;;;;;;;;;;;12.12;53.61;98733.91;4477978;32;34474;-68
2023/01/16 03:12:49;;;;;;;;;;;;;;;12.19;53.08;98739.53;4460660;32;32157;-66
2023/01/16 03:15:22;;;;;;;;;;;;;;;11.97;53.74;98744.28;4480575;32;34343;-69
2023/01/16 03:18:08;;;;;;;;;;;;;;;11.69;54.43;98731.84;4463653;32;33022;-67
2023/01/16 03:20:41;;;;;;;;;;;;;;;11.76;54.22;98731.09;4467617;32;33968;-67
2023/01/16 03:23:11;;;;;;;;;;;;;;;11.49;55.14;98725.66;4467597;32;34481;-66
2023/01/16 03:25:43;;;;;;;;;;;;;;;11.70;54.91;98725.47;4469438;32;34238;-69
2023/01/16 03:28:16;;;;;;;;;;;;;;;11.84;54.05;98724.97;4473774;32;34531;-67
2023/01/16 03:30:46;;;;;;;;;;;;;;;11.87;53.83;98732.75;4455628;32;35347;-67
2023/01/16 03:33:22;;;;;;;;;;;;;;;11.70;54.42;98720.09;4458788;32;33543;-68
2023/01/16 03:35:52;;;;;;;;;;;;;;;11.95;53.73;98713.25;4457669;32;33911;-67
2023/01/16 03:38:19;;;;;;;;;;;;;;;11.96;53.60;98705.06;4450937;32;34004;-67
2023/01/16 03:40:47;;;;;;;;;;;;;;;11.94;53.71;98700.84;4471143;32;34935;-67
2023/01/16 03:43:15;;;;;;;;;;;;;;;11.81;54.13;98702.00;4470661;32;33533;-67
2023/01/16 03:45:52;;;;;;;;;;;;;;;11.88;54.03;98705.81;4469538;32;34061;-67
2023/01/16 03:48:22;;;;;;;;;;;;;;;11.93;53.92;98700.00;4450091;32;33831;-68
2023/01/16 03:50:52;;;;;;;;;;;;;;;12.11;53.25;98692.00;4457712;32;35818;-67
2023/01/16 03:53:20;;;;;;;;;;;;;;;11.63;54.54;98691.22;4455893;32;34033;-67
2023/01/16 03:55:53;;;;;;;;;;;;;;;11.81;54.06;98680.56;4469680;32;35076;-67
2023/01/16 03:58:24;;;;;;;;;;;;;;;11.92;53.34;98676.03;4466293;32;34162;-67
2023/01/16 04:00:55;;;;;;;;;;;;;;;12.06;52.76;98679.03;4467411;32;34978;-68
2023/01/16 04:03:25;;;;;;;;;;;;;;;12.06;52.60;98672.81;4455601;32;34029;-67
2023/01/16 04:06:08;;;;;;;;;;;;;;;11.96;52.88;98672.03;4471555;31;35011;-67
2023/01/16 04:08:36;;;;;;;;;;;;;;;11.74;53.62;98671.41;4469167;32;34667;-66
2023/01/16 04:11:04;;;;;;;;;;;;;;;11.77;53.65;98659.53;4467829;32;34122;-66
2023/01/16 04:13:35;;;;;;;;;;;;;;;11.83;53.20;98657.09;4454871;32;33673;-68
2023/01/16 04:16:04;;;;;;;;;;;;;;;11.75;53.49;98654.34;4467198;32;34162;-68
2023/01/16 04:18:32;;;;;;;;;;;;;;;11.69;53.88;98649.56;4461787;32;34354;-68
2023/01/16 04:21:00;;;;;;;;;;;;;;;11.45;54.82;98649.25;4463587;32;34144;-67
2023/01/16 04:23:28;;;;;;;;;;;;;;;11.77;53.93;98640.78;4476481;32;33690;-67
2023/01/16 04:25:55;;;;;;;;;;;;;;;11.80;53.71;98630.59;4483217;32;34293;-67
2023/01/16 04:28:22;;;;;;;;;;;;;;;11.70;54.05;98624.44;4482638;32;33652;-67
2023/01/16 04:30:50;;;;;;;;;;;;;;;11.73;53.98;98617.97;4474079;32;34348;-67
2023/01/16 04:33:17;;;;;;;;;;;;;;;11.61;54.32;98623.50;4481902;31;32796;-67
2023/01/16 04:35:45;;;;;;;;;;;;;;;11.81;53.44;98624.25;4481341;31;35240;-67
2023/01/16 04:38:12;;;;;;;;;;;;;;;11.81;53.25;98624.25;4467979;32;35499;-68
2023/01/16 04:40:39;;;;;;;;;;;;;;;11.78;53.03;98619.19;4467893;32;34119;-68
2023/01/16 04:43:07;;;;;;;;;;;;;;;11.79;53.17;98615.50;4475090;32;33090;-68
2023/01/16 04:45:34;;;;;;;;;;;;;;;11.87;52.84;98618.31;4473061;32;34882;-67
2023/01/16 04:48:01;;;;;;;;;;;;;;;11.58;53.92;98618.44;4458935;32;35129;-68
2023/01/16 04:50:29;;;;;;;;;;;;;;;11.66;53.88;98605.16;4473315;32;35106;-67
2023/01/16 04:52:56;;;;;;;;;;;;;;;11.71;53.71;98602.00;4468164;32;33067;-67
2023/01/16 04:55:24;;;;;;;;;;;;;;;11.79;53.38;98593.22;4471692;32;34230;-65
2023/01/16 04:57:51;;;;;;;;;;;;;;;11.75;53.33;98589.13;4468930;32;34150;-65
2023/01/16 05:00:19;;;;;;;;;;;;;;;11.92;52.71;98592.91;4469346;32;34857;-66
2023/01/16 05:02:46;;;;;;;;;;;;;;;11.72;52.83;98587.62;4479560;32;33476;-67
2023/01/16 05:05:13;;;;;;;;;;;;;;;11.66;52.95;98589.06;4473859;32;34159;-66
2023/01/16 05:07:40;;;;;;;;;;;;;;;11.69;53.08;98587.09;4476906;32;33447;-66
2023/01/16 05:10:08;;;;;;;;;;;;;;;11.73;52.94;98583.94;4481296;32;34261;-67
2023/01/16 05:12:35;;;;;;;;;;;;;;;11.76;52.68;98578.28;4468365;32;34425;-65
2023/01/16 05:15:03;;;;;;;;;;;;;;;11.76;52.82;98570.25;4478374;31;35386;-67
2023/01/16 05:17:30;;;;;;;;;;;;;;;11.62;53.81;98576.97;4477394;31;34245;-66
2023/01/16 05:19:57;;;;;;;;;;;;;;;11.65;53.86;98581.16;4467810;32;34498;-66
2023/01/16 05:22:25;;;;;;;;;;;;;;;11.67;53.80;98579.19;4473577;32;34691;-66
2023/01/16 05:24:52;;;;;;;;;;;;;;;11.52;54.30;98573.47;4469032;32;35371;-66
2023/01/16 05:27:19;;;;;;;;;;;;;;;11.58;54.37;98572.03;4475590;32;34901;-67
2023/01/16 05:29:47;;;;;;;;;;;;;;;11.48;54.64;98568.56;4469836;32;35212;-65
2023/01/16 05:32:14;;;;;;;;;;;;;;;11.56;54.30;98564.16;4471137;32;33871;-66
2023/01/16 05:34:41;;;;;;;;;;;;;;;11.85;53.02;98565.84;4469677;32;34188;-66
2023/01/16 05:37:09;;;;;;;;;;;;;;;11.91;52.37;98565.25;4479389;32;32830;-67
2023/01/16 05:39:36;;;;;;;;;;;;;;;11.88;52.03;98566.38;4475902;32;33976;-67
2023/01/16 05:42:03;;;;;;;;;;;;;;;11.82;52.02;98566.13;4469372;32;33923;-66
2023/01/16 05:44:31;;;;;;;;;;;;;;;11.88;52.12;98570.91;4466050;32;35326;-70
2023/01/16 05:46:58;;;;;;;;;;;;;;;11.83;52.39;98573.16;4475928;32;34035;-66
2023/01/16 05:49:25;;;;;;;;;;;;;;;11.92;52.03;98571.44;4472950;31;33981;-70
2023/01/16 05:51:54;;;;;;;;;;;;;;;11.89;52.16;98568.06;4479785;32;34302;-70
2023/01/16 05:54:21;;;;;;;;;;;;;;;11.89;52.38;98570.75;4470137;32;33931;-69
2023/01/16 05:56:48;;;;;;;;;;;;;;;11.85;52.53;98572.06;4465543;32;35174;-69
2023/01/16 05:59:16;;;;;;;;;;;;;;;11.75;52.98;98575.75;4473243;32;34038;-71
2023/01/16 06:01:43;;;;;;;;;;;;;;;11.90;52.34;98579.62;4477034;32;33290;-69
2023/01/16 06:04:10;;;;;;;;;;;;;;;11.87;52.20;98572.72;4471810;32;35191;-70
2023/01/16 06:06:38;;;;;;;;;;;;;;;11.89;52.06;98569.91;4474031;32;35416;-69
2023/01/16 06:09:05;;;;;;;;;;;;;;;11.69;53.05;98566.47;4474888;32;35527;-69
2023/01/16 06:11:33;;;;;;;;;;;;;;;11.66;53.22;98564.94;4465916;32;33353;-72
2023/01/16 06:14:04;;;;;;;;;;;;;;;11.80;52.86;98563.56;4468564;32;34307;-68
2023/01/16 06:16:31;;;;;;;;;;;;;;;11.62;53.34;98565.38;4466265;31;34947;-68
2023/01/16 06:18:59;;;;;;;;;;;;;;;11.75;52.74;98565.00;4476247;32;34198;-71
2023/01/16 06:21:26;;;;;;;;;;;;;;;11.67;53.22;98555.06;4450603;32;32230;-71
2023/01/16 06:23:54;;;;;;;;;;;;;;;11.73;53.13;98554.47;4478376;32;33983;-71
2023/01/16 06:26:21;;;;;;;;;;;;;;;11.71;53.19;98556.44;4473041;32;33233;-68
2023/01/16 06:28:48;;;;;;;;;;;;;;;11.58;53.64;98550.59;4473154;31;34522;-69
2023/01/16 06:31:15;;;;;;;;;;;;;;;11.71;53.19;98545.72;4473198;32;33393;-69
2023/01/16 06:33:43;;;;;;;;;;;;;;;11.87;52.56;98537.87;4460454;32;33558;-73
2023/01/16 06:36:10;;;;;;;;;;;;;;;12.00;51.66;98533.97;4479854;31;34616;-68
2023/01/16 06:38:38;;;;;;;;;;;;;;;11.58;53.40;98527.31;4479836;31;34063;-72
2023/01/16 06:41:05;;;;;;;;;;;;;;;11.68;53.09;98531.78;4470436;32;33260;-68
2023/01/16 06:43:32;;;;;;;;;;;;;;;11.89;52.46;98535.88;4467459;32;33933;-68
2023/01/16 06:46:00;;;;;;;;;;;;;;;11.96;52.11;98536.13;4468027;32;34255;-68
2023/01/16 06:48:27;;;;;;;;;;;;;;;11.59;52.98;98533.53;4465531;32;34226;-67
2023/01/16 06:50:54;;;;;;;;;;;;;;;11.04;54.52;98523.66;4478039;32;33363;-69
2023/01/16 06:53:21;;;;;;;;;;;;;;;11.38;54.12;98528.44;4473608;32;34282;-69
2023/01/16 06:55:49;;;;;;;;;;;;;;;11.59;53.13;98542.41;4476144;32;35521;-70
2023/01/16 06:58:16;;;;;;;;;;;;;;;11.35;53.99;98539.44;4482181;32;34516;-71
2023/01/16 07:00:44;;;;;;;;;;;;;;;11.49;53.27;98541.62;4477490;32;33276;-69
2023/01/16 07:03:12;;;;;;;;;;;;;;;10.85;55.29;98537.09;4468168;32;33901;-69
2023/01/16 07:05:39;;;;;;;;;;;;;;;11.55;53.68;98535.66;4468005;32;34065;-69
2023/01/16 07:08:07;;;;;;;;;;;;;;;11.72;52.57;98541.19;4478451;32;32884;-68
2023/01/16 07:10:34;;;;;;;;;;;;;;;11.73;52.76;98546.41;4475155;32;33478;-69
2023/01/16 07:13:02;;;;;;;;;;;;;;;11.54;53.91;98557.25;4469543;32;33994;-69
2023/01/16 07:23:56;;;;;;;;;;;;;;;11.19;55.40;98537.41;4455415;32;35219;-69
2023/01/16 07:26:23;;;;;;;;;;;;;;;11.33;55.11;98530.69;4468233;32;34082;-69
2023/01/16 07:28:51;;;;;;;;;;;;;;;11.46;54.45;98539.25;4474960;32;34060;-69
2023/01/16 07:31:18;;;;;;;;;;;;;;;11.15;55.79;98539.53;4453658;32;33589;-69
2023/01/16 07:33:45;;;;;;;;;;;;;;;11.35;55.05;98536.78;4470614;32;34019;-69
2023/01/16 07:36:13;;;;;;;;;;;;;;;11.44;54.99;98535.88;4467212;32;33913;-70
2023/01/16 07:38:40;;;;;;;;;;;;;;;11.00;56.16;98511.56;4475231;32;33729;-70
2023/01/16 07:41:07;;;;;;;;;;;;;;;11.17;55.65;98504.56;4477034;32;33338;-70
2023/01/16 07:43:35;;;;;;;;;;;;;;;10.99;56.77;98507.19;4468947;32;32819;-69
2023/01/16 07:46:02;;;;;;;;;;;;;;;10.18;59.20;98501.47;4476625;32;32981;-70
2023/01/16 07:48:29;;;;;;;;;;;;;;;10.56;57.95;98489.91;4469610;32;34027;-71
2023/01/16 07:50:57;;;;;;;;;;;;;;;10.44;58.28;98481.19;4482320;32;33505;-70
2023/01/16 07:53:25;;;;;;;;;;;;;;;9.75;60.84;98486.69;4474521;32;34184;-69
2023/01/16 07:55:54;;;;;;;;;;;;;;;10.34;59.20;98475.03;4479112;32;34026;-70
2023/01/16 07:58:21;;;;;;;;;;;;;;;10.42;58.77;98477.81;4473137;31;34224;-68
2023/01/16 08:00:49;;;;;;;;;;;;;;;9.93;60.45;98477.00;4478414;31;31796;-70
2023/01/16 08:03:16;;;;;;;;;;;;;;;10.32;59.33;98466.28;4475061;32;33513;-70
2023/01/16 08:05:44;;;;;;;;;;;;;;;10.68;58.20;98448.56;4469748;32;35233;-71
2023/01/16 08:08:11;;;;;;;;;;;;;;;10.74;58.18;98447.16;4467421;32;33811;-69
2023/01/16 08:10:39;;;;;;;;;;;;;;;10.84;58.03;98447.94;4483333;32;32563;-68
2023/01/16 08:13:06;;;;;;;;;;;;;;;11.09;57.28;98445.56;4468915;32;33781;-69
2023/01/16 08:15:33;;;;;;;;;;;;;;;11.26;56.77;98436.72;4464336;32;34463;-69
2023/01/16 08:18:01;;;;;;;;;;;;;;;11.02;57.23;98434.62;4471205;31;32933;-69
2023/01/16 08:20:28;;;;;;;;;;;;;;;11.34;56.38;98426.09;4471573;32;33642;-69
2023/01/16 08:22:57;;;;;;;;;;;;;;;11.54;56.02;98425.97;4479481;32;33779;-69
2023/01/16 08:25:25;;;;;;;;;;;;;;;11.42;56.32;98420.81;4476400;32;35423;-69
2023/01/16 08:27:52;;;;;;;;;;;;;;;11.73;55.22;98408.87;4471291;32;32645;-68
2023/01/16 08:30:20;;;;;;;;;;;;;;;12.01;54.52;98406.97;4473523;32;33540;-69
2023/01/16 08:32:47;;;;;;;;;;;;;;;11.48;55.82;98407.81;4473659;32;32972;-68
2023/01/16 08:35:14;;;;;;;;;;;;;;;11.64;55.14;98399.91;4471309;32;35754;-68
2023/01/16 08:37:47;;;;;;;;;;;;;;;11.53;55.33;98394.81;4478004;32;35427;-68
2023/01/16 08:40:15;;;;;;;;;;;;;;;11.33;55.67;98383.38;4472375;32;33359;-69
2023/01/16 08:53:47;;;;;;;;;;;;;;;8.55;64.19;98371.16;4472473;32;35181;-70
2023/01/16 08:56:15;;;;;;;;;;;;;;;9.04;63.21;98348.91;4474871;32;33147;-69
2023/01/16 08:58:42;;;;;;;;;;;;;;;8.83;64.14;98346.37;4482246;32;33888;-70
2023/01/16 09:01:09;;;;;;;;;;;;;;;9.33;62.42;98338.25;4472884;32;33628;-71
2023/01/16 09:03:37;;;;;;;;;;;;;;;8.50;64.78;98339.53;4480580;32;34171;-70
2023/01/16 09:06:04;;;;;;;;;;;;;;;8.34;65.28;98339.16;4476132;32;33969;-70
2023/01/16 09:08:32;;;;;;;;;;;;;;;8.05;66.35;98328.41;4476535;32;34418;-71
2023/01/16 09:13:48;;;;;;;;;;;;;;;8.53;65.31;98315.25;4473056;32;34226;-72
2023/01/16 09:16:19;;;;;;;;;;;;;;;8.56;64.08;98303.50;4479125;32;35265;-70
2023/01/16 09:18:47;;;;;;;;;;;;;;;8.56;64.79;98298.16;4469028;32;34641;-70
2023/01/16 09:21:14;;;;;;;;;;;;;;;8.03;66.53;98288.56;4469428;32;33944;-69
2023/01/16 09:23:42;;;;;;;;;;;;;;;8.47;65.39;98286.47;4461633;32;35305;-71
2023/01/16 09:26:09;;;;;;;;;;;;;;;8.27;65.89;98282.06;4473589;32;34338;-71
2023/01/16 09:28:36;;;;;;;;;;;;;;;7.66;67.78;98270.44;4470554;32;35117;-72
2023/01/16 09:31:04;;;;;;;;;;;;;;;8.39;65.88;98273.00;4482589;32;33683;-69
2023/01/16 09:33:31;;;;;;;;;;;;;;;8.53;65.92;98259.25;4475781;32;34254;-68
2023/01/16 09:35:58;;;;;;;;;;;;;;;8.92;64.38;98256.63;4470776;32;34212;-70
2023/01/16 09:38:27;;;;;;;;;;;;;;;8.57;65.25;98252.69;4473693;32;34450;-68
2023/01/16 09:40:55;;;;;;;;;;;;;;;8.60;64.99;98240.87;4474946;32;32085;-69
2023/01/16 09:43:37;;;;;;;;;;;;;;;7.38;69.16;98236.50;4468451;32;33840;-68
2023/01/16 09:46:10;;;;;;;;;;;;;;;7.68;68.38;98231.22;4475905;32;35292;-69
2023/01/16 09:48:57;;;;;;;;;;;;;;;8.79;64.97;98222.22;4468598;32;33956;-70
2023/01/16 09:51:30;;;;;;;;;;;;;;;8.37;65.54;98217.09;4473186;32;33407;-69
2023/01/16 09:59:46;;;;;;;;;;;;;;;7.83;68.00;98199.75;4483769;32;34348;-69
2023/01/16 10:02:23;;;;;;;;;;;;;;;8.36;65.98;98198.59;4458024;32;33313;-68
2023/01/16 10:04:51;;;;;;;;;;;;;;;8.30;65.92;98194.66;4470291;32;34037;-67
2023/01/16 10:07:27;;;;;;;;;;;;;;;8.37;66.13;98181.59;4461385;32;35187;-68
2023/01/16 10:09:57;;;;;;;;;;;;;;;8.09;66.99;98175.25;4482322;32;33520;-69
2023/01/16 10:12:27;;;;;;;;;;;;;;;8.05;67.47;98173.84;4470789;32;31608;-67
2023/01/16 10:15:01;;;;;;;;;;;;;;;8.10;68.07;98171.63;4458723;32;35005;-69
2023/01/16 10:17:32;;;;;;;;;;;;;;;8.75;65.88;98155.97;4461204;32;35384;-72
2023/01/16 10:20:00;;;;;;;;;;;;;;;9.06;63.90;98151.28;4468248;32;34848;-71
2023/01/16 10:22:30;;;;;;;;;;;;;;;8.72;64.83;98140.25;4470426;31;33620;-69
2023/01/16 10:24:58;;;;;;;;;;;;;;;9.26;63.67;98134.22;4470683;32;33584;-69
2023/01/16 10:27:27;;;;;;;;;;;;;;;9.27;63.17;98135.06;4476549;31;33319;-72
2023/01/16 10:29:58;;;;;;;;;;;;;;;9.02;63.94;98129.38;4480260;31;33680;-70
2023/01/16 10:32:28;;;;;;;;;;;;;;;8.26;65.84;98128.44;4456820;32;33942;-67
2023/01/16 10:35:00;;;;;;;;;;;;;;;8.36;66.19;98122.12;4463778;32;35386;-67
2023/01/16 10:37:27;;;;;;;;;;;;;;;8.61;65.18;98111.91;4469457;32;34802;-70
2023/01/16 10:39:55;;;;;;;;;;;;;;;8.99;63.94;98105.66;4481186;32;33791;-69
2023/01/16 10:50:42;;;;;;;;;;;;;;;7.82;68.24;98080.00;4458908;32;33138;-66
2023/01/16 10:53:09;;;;;;;;;;;;;;;7.69;69.10;98070.44;4478060;32;33148;-66
2023/01/16 10:55:41;;;;;;;;;;;;;;;7.70;68.50;98065.97;4469758;31;34730;-74
2023/01/16 10:58:17;;;;;;;;;;;;;;;7.43;69.16;98066.59;4471381;32;35531;-72
2023/01/16 11:00:45;;;;;;;;;;;;;;;8.11;66.85;98056.87;4471556;32;33769;-73
2023/01/16 11:03:21;;;;;;;;;;;;;;;7.51;69.50;98048.13;4454953;32;35238;-70
2023/01/16 11:05:48;;;;;;;;;;;;;;;8.04;67.97;98044.28;4455091;32;34837;-70
2023/01/16 11:08:18;;;;;;;;;;;;;;;7.29;70.87;98040.34;4473510;32;34481;-70
2023/01/16 11:10:49;;;;;;;;;;;;;;;7.23;70.78;98033.78;4475853;32;34383;-75
2023/01/16 11:18:59;;;;;;;;;;;;;;;7.36;71.82;98012.25;4462738;31;33028;-68
2023/01/16 11:21:26;;;;;;;;;;;;;;;7.48;70.85;98019.13;4447540;32;32665;-69
2023/01/16 11:24:01;;;;;;;;;;;;;;;7.33;71.50;97999.22;4465932;32;33185;-69
2023/01/16 11:26:28;;;;;;;;;;;;;;;7.32;71.72;97995.72;4450721;32;36257;-70
2023/01/16 11:28:56;;;;;;;;;;;;;;;7.72;69.50;97988.59;4467368;32;33968;-70
2023/01/16 11:31:25;;;;;;;;;;;;;;;8.08;68.40;97984.38;4451454;32;34126;-68
2023/01/16 11:34:00;;;;;;;;;;;;;;;6.36;74.91;97991.69;4469366;32;31920;-68
2023/01/16 11:36:28;;;;;;;;;;;;;;;6.41;75.36;97983.31;4450987;31;33917;-68
2023/01/16 11:38:56;;;;;;;;;;;;;;;7.68;70.72;97964.09;4455508;32;35103;-69
2023/01/16 11:41:24;;;;;;;;;;;;;;;7.29;70.54;97952.53;4467861;32;35064;-70
2023/01/16 11:47:11;;;;;;;;;;;;;;;7.38;71.68;97951.72;4446507;32;35318;-71
2023/01/16 11:49:39;;;;;;;;;;;;;;;6.85;72.39;97947.53;4466010;32;34273;-69
2023/01/16 11:52:12;;;;;;;;;;;;;;;7.48;70.46;97931.28;4466135;32;33501;-69
2023/01/16 11:54:39;;;;;;;;;;;;;;;7.94;68.72;97921.72;4454699;32;33473;-70
2023/01/16 11:57:10;;;;;;;;;;;;;;;6.56;74.24;97936.81;4470048;32;33502;-68
2023/01/16 11:59:46;;;;;;;;;;;;;;;7.23;70.96;97927.34;4477135;32;34092;-67
2023/01/16 12:02:32;;;;;;;;;;;;;;;6.75;74.08;97912.13;4463230;31;34066;-68
2023/01/16 12:08:11;;;;;;;;;;;;;;;6.44;75.32;97900.66;4468578;32;34274;-68
2023/01/16 12:10:41;;;;;;;;;;;;;;;7.20;72.99;97880.56;4467403;32;34456;-68
2023/01/16 12:16:00;;;;;;;;;;;;;;;7.15;72.66;97869.47;4472267;32;33209;-68
2023/01/16 12:18:31;;;;;;;;;;;;;;;7.54;70.95;97872.13;4469307;32;34126;-70
2023/01/16 12:21:00;;;;;;;;;;;;;;;7.63;70.63;97851.81;4477915;32;34166;-68
2023/01/16 12:23:46;;;;;;;;;;;;;;;6.96;73.48;97853.50;4474931;32;33995;-69
2023/01/16 12:26:27;;;;;;;;;;;;;;;7.63;70.06;97851.81;4471678;32;33463;-67
2023/01/16 12:29:03;;;;;;;;;;;;;;;6.78;74.26;97839.22;4454312;32;34685;-68
2023/01/16 12:31:35;;;;;;;;;;;;;;;7.52;71.58;97841.34;4478600;32;35208;-70
2023/01/16 12:34:12;;;;;;;;;;;;;;;7.33;71.65;97839.53;4458081;32;35256;-68
2023/01/16 12:36:48;;;;;;;;;;;;;;;7.41;71.95;97829.00;4482699;32;33056;-68
2023/01/16 12:39:23;;;;;;;;;;;;;;;6.94;73.48;97816.41;4470468;31;33900;-72
2023/01/16 12:44:51;;;;;;;;;;;;;;;7.83;70.39;97810.88;4454818;32;33992;-70
2023/01/16 12:47:37;;;;;;;;;;;;;;;7.51;71.23;97811.19;4456245;32;31531;-68
2023/01/16 12:50:10;;;;;;;;;;;;;;;7.75;70.32;97808.06;4465466;31;34343;-69
2023/01/16 12:52:47;;;;;;;;;;;;;;;7.68;70.74;97807.81;4466551;31;34343;-70
2023/01/16 12:55:22;;;;;;;;;;;;;;;7.56;70.86;97792.97;4451108;32;34712;-69
2023/01/16 12:57:55;;;;;;;;;;;;;;;7.60;71.42;97802.34;4440467;32;33390;-70
2023/01/16 13:00:23;;;;;;;;;;;;;;;7.22;72.76;97798.78;4472477;31;34606;-75
2023/01/16 13:02:52;;;;;;;;;;;;;;;7.17;72.97;97800.19;4450867;32;33769;-70
2023/01/16 13:05:21;;;;;;;;;;;;;;;7.88;70.59;97789.13;4450542;32;33569;-69
2023/01/16 13:07:50;;;;;;;;;;;;;;;7.90;70.55;97785.31;4469878;32;33330;-71
2023/01/16 13:13:24;;;;;;;;;;;;;;;8.13;69.87;97776.97;4466775;32;32978;-68
2023/01/16 13:15:56;;;;;;;;;;;;;;;7.90;70.02;97764.00;4470511;32;33989;-70
2023/01/16 13:18:28;;;;;;;;;;;;;;;7.49;72.26;97759.94;4457115;32;31555;-68
2023/01/16 13:20:57;;;;;;;;;;;;;;;7.72;70.76;97759.59;4451007;32;33821;-66
2023/01/16 13:23:25;;;;;;;;;;;;;;;7.87;70.05;97753.66;4452868;32;32495;-67
2023/01/16 13:25:56;;;;;;;;;;;;;;;7.90;70.96;97757.84;4453224;32;33571;-67
2023/01/16 13:28:36;;;;;;;;;;;;;;;7.85;70.87;97766.25;4449173;32;33379;-67
2023/01/16 13:31:04;;;;;;;;;;;;;;;8.28;69.23;97763.97;4468990;32;33785;-66
2023/01/16 13:33:32;;;;;;;;;;;;;;;7.63;72.33;97772.78;4466821;31;34958;-66
2023/01/16 13:36:17;;;;;;;;;;;;;;;8.08;69.55;97772.06;4463726;31;33950;-67
2023/01/16 13:38:50;;;;;;;;;;;;;;;7.98;70.54;97776.59;4452483;32;34812;-66
2023/01/16 13:41:18;;;;;;;;;;;;;;;7.50;71.53;97777.56;4470245;32;34825;-66
2023/01/16 13:46:41;;;;;;;;;;;;;;;7.71;71.15;97764.09;4469786;32;34201;-67
2023/01/16 13:49:12;;;;;;;;;;;;;;;8.35;68.43;97759.75;4455679;32;33239;-67
2023/01/16 13:51:42;;;;;;;;;;;;;;;8.24;68.82;97751.94;4456324;32;35757;-66
2023/01/16 13:54:21;;;;;;;;;;;;;;;6.40;74.56;97759.25;4467801;32;34252;-66
2023/01/16 13:57:00;;;;;;;;;;;;;;;7.44;71.65;97743.53;4469587;32;34880;-67
2023/01/16 13:59:48;;;;;;;;;;;;;;;7.15;72.15;97739.09;4468787;32;33885;-66
2023/01/16 14:02:24;;;;;;;;;;;;;;;7.39;71.69;97730.69;4468907;32;34099;-67
2023/01/16 14:05:20;;;;;;;;;;;;;;;6.28;75.07;97734.59;4471373;32;32942;-65
2023/01/16 14:10:45;;;;;;;;;;;;;;;7.51;71.13;97730.50;4455790;32;31452;-66